createdAt,value
2023-12-04T00:00:13.286Z,620.00
2023-12-04T00:01:13.675Z,623.00
2023-12-04T00:02:13.263Z,620.00
2023-12-04T00:03:13.298Z,625.00
2023-12-04T00:04:13.355Z,623.00
2023-12-04T00:05:13.308Z,621.00
2023-12-04T00:57:40.015Z,622.00
2023-12-04T00:58:12.860Z,625.00
2023-12-04T00:59:12.791Z,656.00
2023-12-04T01:00:12.750Z,766.00
2023-12-04T01:01:12.738Z,916.00
2023-12-04T01:02:12.724Z,1078.00
2023-12-04T01:03:12.737Z,1126.00
2023-12-04T01:04:12.712Z,1069.00
2023-12-04T01:05:12.699Z,1020.00
2023-12-04T01:06:12.698Z,975.00
2023-12-04T01:07:12.696Z,930.00
2023-12-04T01:08:12.683Z,911.00
2023-12-04T01:09:12.673Z,862.00
2023-12-04T01:10:12.649Z,844.00
2023-12-04T01:11:12.645Z,821.00
2023-12-04T01:12:12.638Z,797.00
2023-12-04T01:13:12.657Z,777.00
2023-12-04T01:14:12.616Z,774.00
2023-12-04T01:15:12.600Z,742.00
2023-12-04T01:16:12.591Z,729.00
2023-12-04T01:17:12.582Z,727.00
2023-12-04T01:18:12.708Z,713.00
2023-12-04T01:19:12.636Z,703.00
2023-12-04T01:20:12.579Z,687.00
2023-12-04T01:21:12.553Z,695.00
2023-12-04T01:22:12.539Z,670.00
2023-12-04T01:23:12.526Z,670.00
2023-12-04T01:24:12.564Z,663.00
2023-12-04T01:25:12.520Z,660.00
2023-12-04T01:26:12.510Z,656.00
2023-12-04T01:27:12.500Z,658.00
2023-12-04T01:28:12.488Z,656.00
2023-12-04T01:29:12.545Z,654.00
2023-12-04T01:30:12.499Z,652.00
2023-12-04T01:31:12.492Z,651.00
2023-12-04T01:32:12.488Z,645.00
2023-12-04T01:33:12.555Z,641.00
2023-12-04T01:34:12.519Z,645.00
2023-12-04T01:35:12.492Z,643.00
2023-12-04T01:36:12.501Z,640.00
2023-12-04T01:37:12.564Z,641.00
2023-12-04T01:38:12.559Z,640.00
2023-12-04T01:39:12.556Z,638.00
2023-12-04T01:40:12.605Z,637.00
2023-12-04T01:41:12.564Z,639.00
2023-12-04T01:42:12.550Z,636.00
2023-12-04T01:43:12.577Z,637.00
2023-12-04T01:44:12.553Z,637.00
2023-12-04T01:45:12.588Z,632.00
2023-12-04T01:46:12.553Z,634.00
2023-12-04T01:47:12.549Z,632.00
2023-12-04T01:48:12.646Z,629.00
2023-12-04T01:49:12.679Z,630.00
2023-12-04T01:50:12.550Z,629.00
2023-12-04T01:51:12.552Z,624.00
2023-12-04T01:52:12.605Z,627.00
2023-12-04T01:53:12.558Z,627.00
2023-12-04T01:54:12.564Z,625.00
2023-12-04T01:55:12.547Z,623.00
2023-12-04T01:56:12.558Z,625.00
2023-12-04T01:57:12.545Z,624.00
2023-12-04T01:58:12.553Z,625.00
2023-12-04T01:59:12.578Z,626.00
2023-12-04T02:00:12.701Z,622.00
2023-12-04T02:01:12.518Z,621.00
2023-12-04T02:02:12.489Z,623.00
2023-12-04T02:03:12.554Z,622.00
2023-12-04T02:04:12.564Z,622.00
2023-12-04T02:05:12.499Z,621.00
2023-12-04T02:06:12.500Z,624.00
2023-12-04T02:07:12.176Z,621.00
2023-12-04T02:08:12.122Z,621.00
2023-12-04T02:09:12.115Z,624.00
2023-12-04T02:10:12.154Z,619.00
2023-12-04T02:11:12.085Z,619.00
2023-12-04T02:12:12.085Z,619.00
2023-12-04T02:13:12.084Z,618.00
2023-12-04T02:14:12.064Z,619.00
2023-12-04T02:15:12.048Z,617.00
2023-12-04T02:16:12.043Z,620.00
2023-12-04T02:17:12.063Z,619.00
2023-12-04T02:18:12.097Z,620.00
2023-12-04T02:19:12.088Z,619.00
2023-12-04T02:20:12.013Z,616.00
2023-12-04T02:21:11.997Z,615.00
2023-12-04T02:22:11.984Z,616.00
2023-12-04T02:23:11.981Z,617.00
2023-12-04T02:24:11.970Z,618.00
2023-12-04T02:25:21.543Z,618.00
2023-12-04T02:26:11.963Z,618.00
2023-12-04T02:27:11.943Z,618.00
2023-12-04T02:28:11.966Z,619.00
2023-12-04T02:29:11.959Z,615.00
2023-12-04T02:30:11.914Z,615.00
2023-12-04T02:31:11.932Z,617.00
2023-12-04T02:32:11.891Z,617.00
2023-12-04T02:33:11.970Z,617.00
2023-12-04T02:34:12.801Z,616.00
2023-12-04T02:35:11.875Z,617.00
2023-12-04T02:36:11.868Z,616.00
2023-12-04T02:37:11.924Z,618.00
2023-12-04T02:38:11.846Z,613.00
2023-12-04T02:39:11.831Z,618.00
2023-12-04T02:40:11.877Z,617.00
2023-12-04T02:41:11.811Z,614.00
2023-12-04T02:42:11.816Z,615.00
2023-12-04T02:43:11.824Z,614.00
2023-12-04T02:44:11.786Z,614.00
2023-12-04T02:45:11.783Z,610.00
2023-12-04T02:46:11.791Z,614.00
2023-12-04T02:47:11.754Z,614.00
2023-12-04T02:48:11.913Z,616.00
2023-12-04T02:49:11.785Z,613.00
2023-12-04T02:50:11.730Z,614.00
2023-12-04T02:51:11.729Z,615.00
2023-12-04T02:52:11.739Z,613.00
2023-12-04T02:53:11.698Z,615.00
2023-12-04T02:54:11.692Z,612.00
2023-12-04T02:55:11.733Z,612.00
2023-12-04T02:56:11.677Z,615.00
2023-12-04T02:57:11.700Z,614.00
2023-12-04T02:58:11.736Z,613.00
2023-12-04T02:59:11.654Z,612.00
2023-12-04T03:00:11.639Z,612.00
2023-12-04T03:01:11.659Z,613.00
2023-12-04T03:02:11.638Z,610.00
2023-12-04T03:03:11.638Z,610.00
2023-12-04T03:04:11.623Z,617.00
2023-12-04T03:05:11.621Z,612.00
2023-12-04T03:06:11.607Z,612.00
2023-12-04T03:07:11.609Z,613.00
2023-12-04T03:08:11.565Z,613.00
2023-12-04T03:09:11.569Z,609.00
2023-12-04T03:10:11.563Z,607.00
2023-12-04T03:11:11.533Z,611.00
2023-12-04T03:12:11.525Z,610.00
2023-12-04T03:13:11.574Z,613.00
2023-12-04T03:14:11.503Z,610.00
2023-12-04T03:15:11.499Z,612.00
2023-12-04T03:16:11.489Z,608.00
2023-12-04T03:17:11.477Z,610.00
2023-12-04T03:18:12.903Z,607.00
2023-12-04T03:19:11.526Z,610.00
2023-12-04T03:20:11.456Z,613.00
2023-12-04T03:21:11.471Z,609.00
2023-12-04T03:22:11.504Z,611.00
2023-12-04T03:23:11.418Z,611.00
2023-12-04T03:24:11.410Z,616.00
2023-12-04T03:25:11.555Z,611.00
2023-12-04T03:26:11.492Z,605.00
2023-12-04T03:27:11.405Z,611.00
2023-12-04T03:28:11.476Z,607.00
2023-12-04T03:29:11.360Z,609.00
2023-12-04T03:30:11.367Z,611.00
2023-12-04T03:31:11.444Z,610.00
2023-12-04T03:32:11.347Z,611.00
2023-12-04T03:33:11.396Z,609.00
2023-12-04T03:34:11.365Z,610.00
2023-12-04T03:35:11.315Z,611.00
2023-12-04T03:36:11.308Z,612.00
2023-12-04T03:37:11.352Z,610.00
2023-12-04T03:38:11.280Z,607.00
2023-12-04T03:39:11.291Z,612.00
2023-12-04T03:40:11.309Z,609.00
2023-12-04T03:41:11.255Z,609.00
2023-12-04T03:42:11.249Z,609.00
2023-12-04T03:43:11.320Z,609.00
2023-12-04T03:44:11.267Z,608.00
2023-12-04T03:45:11.222Z,606.00
2023-12-04T03:46:11.224Z,607.00
2023-12-04T03:47:11.203Z,610.00
2023-12-04T03:48:11.252Z,608.00
2023-12-04T03:49:11.226Z,607.00
2023-12-04T03:50:11.182Z,607.00
2023-12-04T03:51:11.164Z,608.00
2023-12-04T03:52:11.186Z,609.00
2023-12-04T03:53:11.163Z,609.00
2023-12-04T03:54:11.135Z,604.00
2023-12-04T03:55:11.199Z,610.00
2023-12-04T03:56:11.118Z,604.00
2023-12-04T03:57:11.110Z,605.00
2023-12-04T03:58:11.215Z,602.00
2023-12-04T03:59:11.089Z,613.00
2023-12-04T04:00:11.075Z,607.00
2023-12-04T04:01:11.091Z,607.00
2023-12-04T04:02:11.058Z,607.00
2023-12-04T04:03:11.117Z,604.00
2023-12-04T04:04:11.081Z,608.00
2023-12-04T04:05:11.030Z,600.00
2023-12-04T04:06:11.022Z,602.00
2023-12-04T04:07:11.109Z,611.00
2023-12-04T04:08:10.996Z,607.00
2023-12-04T04:09:11.066Z,610.00
2023-12-04T04:10:11.008Z,607.00
2023-12-04T04:11:10.975Z,607.00
2023-12-04T04:12:10.970Z,605.00
2023-12-04T04:13:11.050Z,608.00
2023-12-04T04:14:10.945Z,606.00
2023-12-04T04:15:10.935Z,603.00
2023-12-04T04:16:10.985Z,607.00
2023-12-04T04:17:10.923Z,604.00
2023-12-04T04:18:11.031Z,603.00
2023-12-04T04:19:12.727Z,605.00
2023-12-04T04:20:10.905Z,605.00
2023-12-04T04:21:10.878Z,605.00
2023-12-04T04:22:10.961Z,605.00
2023-12-04T04:23:10.865Z,605.00
2023-12-04T04:24:10.870Z,607.00
2023-12-04T04:25:10.914Z,602.00
2023-12-04T04:26:10.847Z,608.00
2023-12-04T04:27:10.860Z,606.00
2023-12-04T04:28:10.868Z,606.00
2023-12-04T04:29:10.813Z,608.00
2023-12-04T04:30:10.793Z,606.00
2023-12-04T04:31:10.831Z,606.00
2023-12-04T04:32:12.985Z,604.00
2023-12-04T04:33:10.784Z,604.00
2023-12-04T04:34:10.839Z,605.00
2023-12-04T04:35:10.825Z,605.00
2023-12-04T04:36:10.751Z,606.00
2023-12-04T04:37:10.795Z,602.00
2023-12-04T04:38:10.723Z,605.00
2023-12-04T04:39:10.711Z,602.00
2023-12-04T04:40:10.754Z,603.00
2023-12-04T04:41:10.741Z,604.00
2023-12-04T04:42:10.751Z,603.00
2023-12-04T04:43:10.730Z,603.00
2023-12-04T04:44:10.664Z,605.00
2023-12-04T04:45:10.659Z,607.00
2023-12-04T04:46:10.718Z,604.00
2023-12-04T04:47:10.633Z,604.00
2023-12-04T04:48:10.662Z,602.00
2023-12-04T04:49:10.689Z,603.00
2023-12-04T04:50:10.606Z,604.00
2023-12-04T04:51:10.605Z,604.00
2023-12-04T04:52:10.631Z,605.00
2023-12-04T04:53:10.582Z,605.00
2023-12-04T04:54:10.568Z,601.00
2023-12-04T04:55:10.649Z,605.00
2023-12-04T04:56:10.561Z,606.00
2023-12-04T04:57:10.568Z,606.00
2023-12-04T04:58:10.597Z,605.00
2023-12-04T04:59:10.522Z,602.00
2023-12-04T05:00:10.514Z,604.00
2023-12-04T05:01:10.531Z,605.00
2023-12-04T05:02:10.524Z,604.00
2023-12-04T05:03:10.486Z,607.00
2023-12-04T05:04:10.557Z,605.00
2023-12-04T05:05:10.520Z,606.00
2023-12-04T05:06:10.500Z,604.00
2023-12-04T05:07:10.496Z,603.00
2023-12-04T05:08:10.436Z,605.00
2023-12-04T05:09:10.428Z,601.00
2023-12-04T05:10:10.474Z,604.00
2023-12-04T05:11:10.413Z,606.00
2023-12-04T05:12:10.400Z,608.00
2023-12-04T05:13:10.630Z,611.00
2023-12-04T05:14:10.385Z,609.00
2023-12-04T05:15:10.405Z,606.00
2023-12-04T05:16:10.494Z,608.00
2023-12-04T05:17:10.357Z,607.00
2023-12-04T05:18:10.394Z,612.00
2023-12-04T05:19:10.399Z,611.00
2023-12-04T05:20:10.328Z,608.00
2023-12-04T05:21:10.322Z,609.00
2023-12-04T05:22:10.363Z,607.00
2023-12-04T05:23:10.300Z,610.00
2023-12-04T05:24:10.288Z,607.00
2023-12-04T05:25:10.304Z,605.00
2023-12-04T05:26:10.316Z,607.00
2023-12-04T05:27:10.271Z,607.00
2023-12-04T05:28:10.295Z,605.00
2023-12-04T05:29:10.261Z,604.00
2023-12-04T05:30:10.229Z,605.00
2023-12-04T05:31:10.275Z,600.00
2023-12-04T05:32:10.218Z,608.00
2023-12-04T05:33:10.276Z,603.00
2023-12-04T05:34:10.301Z,607.00
2023-12-04T05:35:10.187Z,607.00
2023-12-04T05:36:10.181Z,608.00
2023-12-04T05:37:10.189Z,607.00
2023-12-04T05:38:10.158Z,610.00
2023-12-04T05:39:10.156Z,608.00
2023-12-04T05:40:10.233Z,608.00
2023-12-04T05:41:10.135Z,607.00
2023-12-04T05:42:10.116Z,607.00
2023-12-04T05:43:10.212Z,604.00
2023-12-04T05:44:10.100Z,607.00
2023-12-04T05:45:10.140Z,607.00
2023-12-04T05:46:10.124Z,608.00
2023-12-04T05:47:10.077Z,605.00
2023-12-04T05:48:10.108Z,603.00
2023-12-04T05:49:10.098Z,609.00
2023-12-04T05:50:10.048Z,608.00
2023-12-04T05:51:10.031Z,606.00
2023-12-04T05:52:10.100Z,605.00
2023-12-04T05:53:10.012Z,605.00
2023-12-04T05:54:10.014Z,601.00
2023-12-04T05:55:10.145Z,604.00
2023-12-04T05:56:09.996Z,603.00
2023-12-04T05:57:09.982Z,604.00
2023-12-04T05:58:10.025Z,606.00
2023-12-04T05:59:09.970Z,604.00
2023-12-04T06:00:09.957Z,606.00
2023-12-04T06:01:09.981Z,602.00
2023-12-04T06:02:10.020Z,605.00
2023-12-04T06:03:09.992Z,605.00
2023-12-04T06:04:09.946Z,602.00
2023-12-04T06:05:09.935Z,606.00
2023-12-04T06:06:09.933Z,606.00
2023-12-04T06:07:09.933Z,604.00
2023-12-04T06:08:09.885Z,607.00
2023-12-04T06:09:09.885Z,607.00
2023-12-04T06:10:09.949Z,606.00
2023-12-04T06:11:09.865Z,604.00
2023-12-04T06:12:09.846Z,604.00
2023-12-04T06:13:09.910Z,605.00
2023-12-04T06:14:09.843Z,605.00
2023-12-04T06:15:09.826Z,606.00
2023-12-04T06:16:09.870Z,607.00
2023-12-04T06:17:09.852Z,608.00
2023-12-04T06:18:09.901Z,607.00
2023-12-04T06:19:09.878Z,602.00
2023-12-04T06:20:09.784Z,604.00
2023-12-04T06:21:09.774Z,605.00
2023-12-04T06:22:09.774Z,609.00
2023-12-04T06:23:09.766Z,606.00
2023-12-04T06:24:09.826Z,603.00
2023-12-04T06:25:09.813Z,607.00
2023-12-04T06:26:09.728Z,609.00
2023-12-04T06:27:09.848Z,612.00
2023-12-04T06:28:09.735Z,629.00
2023-12-04T06:29:09.705Z,646.00
2023-12-04T06:30:09.688Z,654.00
2023-12-04T06:31:09.778Z,655.00
2023-12-04T06:32:09.678Z,659.00
2023-12-04T06:33:09.941Z,662.00
2023-12-04T06:34:09.712Z,664.00
2023-12-04T06:35:09.656Z,670.00
2023-12-04T06:36:09.649Z,664.00
2023-12-04T06:37:09.668Z,665.00
2023-12-04T06:38:09.666Z,674.00
2023-12-04T06:39:09.838Z,784.00
2023-12-04T06:40:09.690Z,844.00
2023-12-04T06:41:09.601Z,862.00
2023-12-04T06:42:09.606Z,882.00
2023-12-04T06:43:09.621Z,905.00
2023-12-04T06:44:09.584Z,900.00
2023-12-04T06:45:09.565Z,880.00
2023-12-04T06:46:09.896Z,888.00
2023-12-04T06:47:09.849Z,910.00
2023-12-04T06:48:09.579Z,927.00
2023-12-04T06:49:09.625Z,913.00
2023-12-04T06:50:09.509Z,939.00
2023-12-04T06:51:09.533Z,944.00
2023-12-04T06:52:09.874Z,945.00
2023-12-04T06:53:09.482Z,949.00
2023-12-04T06:54:09.897Z,945.00
2023-12-04T06:55:09.477Z,930.00
2023-12-04T06:56:09.466Z,932.00
2023-12-04T06:57:09.442Z,897.00
2023-12-04T06:58:09.463Z,897.00
2023-12-04T06:59:09.871Z,862.00
2023-12-04T07:00:20.921Z,813.00
2023-12-04T07:01:17.285Z,792.00
2023-12-04T07:02:09.473Z,791.00
2023-12-04T07:03:09.416Z,809.00
2023-12-04T07:04:10.012Z,829.00
2023-12-04T07:05:09.403Z,852.00
2023-12-04T07:06:09.393Z,885.00
2023-12-04T07:07:09.394Z,887.00
2023-12-04T07:08:09.371Z,883.00
2023-12-04T07:09:09.358Z,888.00
2023-12-04T07:10:09.361Z,873.00
2023-12-04T07:11:09.385Z,859.00
2023-12-04T07:12:09.357Z,872.00
2023-12-04T07:13:09.362Z,856.00
2023-12-04T07:14:09.291Z,871.00
2023-12-04T07:15:09.282Z,852.00
2023-12-04T07:16:09.374Z,856.00
2023-12-04T07:17:09.294Z,852.00
2023-12-04T07:18:09.510Z,857.00
2023-12-04T07:19:09.337Z,869.00
2023-12-04T07:20:09.300Z,862.00
2023-12-04T07:21:09.281Z,852.00
2023-12-04T07:22:09.421Z,858.00
2023-12-04T07:23:09.253Z,851.00
2023-12-04T07:24:09.240Z,855.00
2023-12-04T07:25:09.224Z,852.00
2023-12-04T07:26:09.224Z,836.00
2023-12-04T07:27:09.214Z,854.00
2023-12-04T07:28:09.427Z,838.00
2023-12-04T07:29:10.193Z,839.00
2023-12-04T07:30:09.185Z,845.00
2023-12-04T07:31:09.168Z,851.00
2023-12-04T07:32:09.134Z,829.00
2023-12-04T07:33:10.637Z,830.00
2023-12-04T07:34:09.450Z,824.00
2023-12-04T07:35:09.288Z,823.00
2023-12-04T07:36:09.273Z,824.00
2023-12-04T07:37:09.337Z,807.00
2023-12-04T07:38:09.264Z,815.00
2023-12-04T07:39:09.863Z,802.00
2023-12-04T07:40:09.285Z,807.00
2023-12-04T07:41:09.220Z,797.00
2023-12-04T07:42:12.919Z,803.00
2023-12-04T07:43:09.246Z,804.00
2023-12-04T07:44:09.352Z,803.00
2023-12-04T07:45:09.254Z,798.00
2023-12-04T07:46:09.297Z,800.00
2023-12-04T07:47:09.203Z,792.00
2023-12-04T07:48:09.229Z,789.00
2023-12-04T07:49:09.527Z,784.00
2023-12-04T07:50:09.411Z,781.00
2023-12-04T07:51:09.182Z,779.00
2023-12-04T07:52:10.245Z,780.00
2023-12-04T07:53:09.181Z,775.00
2023-12-04T07:54:09.403Z,779.00
2023-12-04T07:55:09.152Z,781.00
2023-12-04T07:56:09.147Z,773.00
2023-12-04T07:57:09.137Z,763.00
2023-12-04T07:58:09.176Z,765.00
2023-12-04T07:59:09.074Z,761.00
2023-12-04T08:00:09.104Z,756.00
2023-12-04T08:01:09.164Z,771.00
2023-12-04T08:02:09.063Z,765.00
2023-12-04T08:03:09.138Z,757.00
2023-12-04T08:04:09.556Z,760.00
2023-12-04T08:05:10.089Z,757.00
2023-12-04T08:06:09.106Z,761.00
2023-12-04T08:07:09.861Z,773.00
2023-12-04T08:08:09.036Z,773.00
2023-12-04T08:09:09.491Z,768.00
2023-12-04T08:10:09.009Z,764.00
2023-12-04T08:11:09.011Z,754.00
2023-12-04T08:12:09.007Z,755.00
2023-12-04T08:13:09.006Z,768.00
2023-12-04T08:14:08.956Z,765.00
2023-12-04T08:15:09.449Z,778.00
2023-12-04T08:16:08.976Z,758.00
2023-12-04T08:17:09.391Z,766.00
2023-12-04T08:18:08.979Z,762.00
2023-12-04T08:19:09.972Z,752.00
2023-12-04T08:20:09.637Z,766.00
2023-12-04T08:21:08.950Z,760.00
2023-12-04T08:22:08.897Z,760.00
2023-12-04T08:23:10.062Z,757.00
2023-12-04T08:24:08.842Z,750.00
2023-12-04T08:25:09.288Z,750.00
2023-12-04T08:26:08.850Z,746.00
2023-12-04T08:27:09.589Z,759.00
2023-12-04T08:28:09.177Z,754.00
2023-12-04T08:29:08.872Z,761.00
2023-12-04T08:30:08.820Z,758.00
2023-12-04T08:31:08.854Z,759.00
2023-12-04T08:32:12.230Z,760.00
2023-12-04T08:33:08.867Z,758.00
2023-12-04T08:34:08.790Z,758.00
2023-12-04T08:35:08.894Z,726.00
2023-12-04T08:36:09.898Z,720.00
2023-12-04T08:37:08.817Z,706.00
2023-12-04T08:38:08.891Z,707.00
2023-12-04T08:39:08.718Z,706.00
2023-12-04T08:40:08.903Z,711.00
2023-12-04T08:41:08.738Z,709.00
2023-12-04T08:42:12.397Z,716.00
2023-12-04T08:43:08.755Z,716.00
2023-12-04T08:44:08.730Z,718.00
2023-12-04T08:45:08.994Z,716.00
2023-12-04T08:46:08.812Z,705.00
2023-12-04T08:47:08.661Z,690.00
2023-12-04T08:48:08.716Z,682.00
2023-12-04T08:49:08.736Z,689.00
2023-12-04T08:50:09.336Z,723.00
2023-12-04T08:51:08.647Z,733.00
2023-12-04T08:52:08.736Z,914.00
2023-12-04T08:53:08.612Z,916.00
2023-12-04T08:55:07.993Z,905.00
2023-12-04T08:56:11.256Z,907.00
2023-12-04T08:57:08.591Z,905.00
2023-12-04T08:58:12.207Z,910.00
2023-12-04T08:59:08.583Z,906.00
2023-12-04T09:00:08.592Z,910.00
2023-12-04T09:01:08.589Z,919.00
2023-12-04T09:02:09.942Z,933.00
2023-12-04T09:03:10.834Z,906.00
2023-12-04T09:04:08.616Z,906.00
2023-12-04T09:05:08.601Z,913.00
2023-12-04T09:06:08.669Z,925.00
2023-12-04T09:09:11.045Z,907.00
2023-12-04T09:10:13.939Z,907.00
2023-12-04T09:11:18.625Z,906.00
2023-12-04T09:12:08.435Z,907.00
2023-12-04T09:13:08.444Z,919.00
2023-12-04T09:14:08.440Z,939.00
2023-12-04T09:15:09.652Z,962.00
2023-12-04T09:16:08.986Z,1003.00
2023-12-04T09:17:08.390Z,997.00
2023-12-04T09:18:08.511Z,1006.00
2023-12-04T09:19:09.455Z,1005.00
2023-12-04T09:20:08.472Z,1005.00
2023-12-04T09:21:08.417Z,1002.00
2023-12-04T09:22:13.020Z,1002.00
2023-12-04T09:23:09.513Z,1002.00
2023-12-04T09:24:08.391Z,1002.00
2023-12-04T09:25:08.322Z,1003.00
2023-12-04T09:26:08.296Z,1005.00
2023-12-04T09:27:08.372Z,1004.00
2023-12-04T09:28:08.278Z,1000.00
2023-12-04T09:29:08.310Z,1005.00
2023-12-04T09:30:08.315Z,1005.00
2023-12-04T09:31:08.271Z,1004.00
2023-12-04T09:32:08.267Z,1006.00
2023-12-04T09:33:08.324Z,1004.00
2023-12-04T09:34:08.231Z,1003.00
2023-12-04T09:35:08.218Z,991.00
2023-12-04T09:36:08.251Z,1010.00
2023-12-04T09:37:11.292Z,1003.00
2023-12-04T09:38:08.192Z,1003.00
2023-12-04T09:39:08.279Z,1003.00
2023-12-04T09:40:08.266Z,1003.00
2023-12-04T09:41:08.171Z,1003.00
2023-12-04T09:42:08.478Z,1007.00
2023-12-04T09:43:08.146Z,1010.00
2023-12-04T09:44:08.150Z,1001.00
2023-12-04T09:45:08.160Z,998.00
2023-12-04T09:46:08.116Z,1001.00
2023-12-04T09:47:08.166Z,977.00
2023-12-04T09:48:08.303Z,966.00
2023-12-04T09:49:08.593Z,936.00
2023-12-04T09:50:08.241Z,913.00
2023-12-04T09:51:08.154Z,882.00
2023-12-04T09:52:08.058Z,860.00
2023-12-04T09:53:08.053Z,850.00
2023-12-04T09:54:08.425Z,837.00
2023-12-04T09:55:08.056Z,832.00
2023-12-04T09:56:08.904Z,836.00
2023-12-04T09:57:08.065Z,835.00
2023-12-04T09:58:08.046Z,824.00
2023-12-04T09:59:08.036Z,817.00
2023-12-04T10:00:08.117Z,820.00
2023-12-04T10:01:08.063Z,811.00
2023-12-04T10:02:08.149Z,808.00
2023-12-04T10:03:08.039Z,834.00
2023-12-04T10:04:07.989Z,832.00
2023-12-04T10:05:08.073Z,841.00
2023-12-04T10:06:08.445Z,858.00
2023-12-04T10:07:07.941Z,865.00
2023-12-04T10:08:07.948Z,867.00
2023-12-04T10:09:07.986Z,861.00
2023-12-04T10:10:07.943Z,867.00
2023-12-04T10:11:07.931Z,882.00
2023-12-04T10:12:07.951Z,886.00
2023-12-04T10:13:07.990Z,903.00
2023-12-04T10:14:07.883Z,922.00
2023-12-04T10:15:07.910Z,923.00
2023-12-04T10:16:08.059Z,931.00
2023-12-04T10:17:07.900Z,934.00
2023-12-04T10:18:07.998Z,937.00
2023-12-04T10:19:07.946Z,958.00
2023-12-04T10:20:07.810Z,966.00
2023-12-04T10:21:08.576Z,975.00
2023-12-04T10:22:07.793Z,993.00
2023-12-04T10:23:07.784Z,1022.00
2023-12-04T10:24:07.790Z,1035.00
2023-12-04T10:25:07.766Z,1053.00
2023-12-04T10:26:07.910Z,1070.00
2023-12-04T10:27:07.757Z,1090.00
2023-12-04T10:28:07.740Z,1102.00
2023-12-04T10:29:07.723Z,1091.00
2023-12-04T10:30:07.742Z,1169.00
2023-12-04T10:31:23.501Z,1261.00
2023-12-04T10:32:11.193Z,1265.00
2023-12-04T10:33:07.838Z,1265.00
2023-12-04T10:34:08.023Z,1267.00
2023-12-04T10:35:07.666Z,1225.00
2023-12-04T10:36:07.681Z,1172.00
2023-12-04T10:37:07.917Z,1135.00
2023-12-04T10:38:10.875Z,1110.00
2023-12-04T10:39:07.680Z,1105.00
2023-12-04T10:40:07.633Z,1083.00
2023-12-04T10:41:15.049Z,1073.00
2023-12-04T10:42:07.968Z,1083.00
2023-12-04T10:43:07.603Z,1076.00
2023-12-04T10:45:06.635Z,1073.00
2023-12-04T10:46:07.582Z,1070.00
2023-12-04T10:47:08.422Z,1074.00
2023-12-04T10:48:07.709Z,1067.00
2023-12-04T10:49:07.607Z,1065.00
2023-12-04T10:50:07.568Z,1062.00
2023-12-04T10:51:07.932Z,1069.00
2023-12-04T10:52:07.524Z,1068.00
2023-12-04T10:53:07.513Z,1073.00
2023-12-04T10:54:07.634Z,1075.00
2023-12-04T10:55:07.782Z,1076.00
2023-12-04T10:56:07.922Z,1086.00
2023-12-04T10:57:07.490Z,1087.00
2023-12-04T10:58:07.468Z,1080.00
2023-12-04T10:59:07.458Z,1095.00
2023-12-04T11:00:07.725Z,1091.00
2023-12-04T11:01:08.000Z,1091.00
2023-12-04T11:02:07.508Z,1100.00
2023-12-04T11:03:08.038Z,1103.00
2023-12-04T11:04:07.585Z,1101.00
2023-12-04T11:05:07.500Z,1109.00
2023-12-04T11:06:07.497Z,1108.00
2023-12-04T11:07:07.461Z,1113.00
2023-12-04T11:08:15.488Z,1121.00
2023-12-04T11:09:07.474Z,1121.00
2023-12-04T11:10:07.479Z,1124.00
2023-12-04T11:11:10.735Z,1128.00
2023-12-04T11:12:08.068Z,1122.00
2023-12-04T11:13:09.811Z,1124.00
2023-12-04T11:14:07.464Z,1122.00
2023-12-04T11:15:07.484Z,1127.00
2023-12-04T11:16:07.481Z,1136.00
2023-12-04T11:17:07.343Z,1147.00
2023-12-04T11:18:07.515Z,1168.00
2023-12-04T11:19:08.358Z,1170.00
2023-12-04T11:20:07.301Z,1176.00
2023-12-04T11:21:07.351Z,1173.00
2023-12-04T11:22:07.281Z,1183.00
2023-12-04T11:23:07.481Z,1178.00
2023-12-04T11:24:07.331Z,1178.00
2023-12-04T11:25:07.435Z,1173.00
2023-12-04T11:26:08.548Z,1176.00
2023-12-04T11:27:07.522Z,1181.00
2023-12-04T11:28:07.465Z,1183.00
2023-12-04T11:29:07.218Z,1209.00
2023-12-04T11:30:07.569Z,1257.00
2023-12-04T11:31:07.205Z,1234.00
2023-12-04T11:32:07.199Z,1218.00
2023-12-04T11:33:07.591Z,1215.00
2023-12-04T11:34:07.505Z,1210.00
2023-12-04T11:35:07.448Z,1215.00
2023-12-04T11:36:08.691Z,1212.00
2023-12-04T11:37:07.113Z,1199.00
2023-12-04T11:38:07.157Z,1199.00
2023-12-04T11:39:07.169Z,1200.00
2023-12-04T11:40:07.446Z,1177.00
2023-12-04T11:41:07.470Z,1190.00
2023-12-04T11:42:10.342Z,1186.00
2023-12-04T11:43:07.098Z,1163.00
2023-12-04T11:44:07.462Z,1160.00
2023-12-04T11:45:07.107Z,1137.00
2023-12-04T11:46:07.065Z,1114.00
2023-12-04T11:47:07.295Z,1108.00
2023-12-04T11:48:07.154Z,1094.00
2023-12-04T11:49:07.562Z,1088.00
2023-12-04T11:50:07.031Z,1093.00
2023-12-04T11:51:07.044Z,1075.00
2023-12-04T11:52:07.037Z,1074.00
2023-12-04T11:53:07.965Z,1067.00
2023-12-04T11:54:07.501Z,1061.00
2023-12-04T11:55:07.992Z,1062.00
2023-12-04T11:56:07.023Z,1063.00
2023-12-04T11:57:06.993Z,1057.00
2023-12-04T11:58:06.963Z,1053.00
2023-12-04T11:59:07.390Z,1058.00
2023-12-04T12:00:06.964Z,1050.00
2023-12-04T12:01:06.981Z,1054.00
2023-12-04T12:02:08.046Z,1040.00
2023-12-04T12:03:17.475Z,1052.00
2023-12-04T12:04:09.276Z,1052.00
2023-12-04T12:05:07.090Z,1053.00
2023-12-04T12:06:08.188Z,1053.00
2023-12-04T12:07:07.078Z,1050.00
2023-12-04T12:08:06.968Z,1037.00
2023-12-04T12:09:06.939Z,1035.00
2023-12-04T12:10:06.990Z,1022.00
2023-12-04T12:11:06.912Z,1012.00
2023-12-04T12:12:06.951Z,1017.00
2023-12-04T12:13:06.882Z,1009.00
2023-12-04T12:14:06.911Z,1010.00
2023-12-04T12:15:07.021Z,1031.00
2023-12-04T12:16:06.876Z,1059.00
2023-12-04T12:17:06.862Z,1080.00
2023-12-04T12:18:07.016Z,1058.00
2023-12-04T12:19:06.915Z,1012.00
2023-12-04T12:20:06.992Z,1009.00
2023-12-04T12:21:06.853Z,1006.00
2023-12-04T12:22:06.806Z,1004.00
2023-12-04T12:23:06.793Z,1008.00
2023-12-04T12:24:07.085Z,1029.00
2023-12-04T12:25:06.988Z,1055.00
2023-12-04T12:26:06.765Z,1084.00
2023-12-04T12:27:08.070Z,1089.00
2023-12-04T12:28:07.729Z,1120.00
2023-12-04T12:29:06.757Z,1119.00
2023-12-04T12:30:06.767Z,1124.00
2023-12-04T12:31:06.734Z,1147.00
2023-12-04T12:32:06.719Z,1197.00
2023-12-04T12:33:06.791Z,1272.00
2023-12-04T12:34:06.814Z,1302.00
2023-12-04T12:35:06.724Z,1318.00
2023-12-04T12:36:07.023Z,1341.00
2023-12-04T12:37:06.679Z,1352.00
2023-12-04T12:38:06.657Z,1378.00
2023-12-04T12:39:06.722Z,1371.00
2023-12-04T12:40:06.690Z,1385.00
2023-12-04T12:41:06.630Z,1411.00
2023-12-04T12:42:06.675Z,1431.00
2023-12-04T12:43:08.480Z,1454.00
2023-12-04T12:44:06.584Z,1469.00
2023-12-04T12:45:06.590Z,1495.00
2023-12-04T12:46:07.039Z,1495.00
2023-12-04T12:47:06.554Z,1526.00
2023-12-04T12:48:06.742Z,1519.00
2023-12-04T12:49:06.713Z,1527.00
2023-12-04T12:50:06.665Z,1528.00
2023-12-04T12:51:07.072Z,1559.00
2023-12-04T12:52:06.598Z,1593.00
2023-12-04T12:53:06.577Z,1727.00
2023-12-04T12:54:06.636Z,1810.00
2023-12-04T12:55:07.058Z,1835.00
2023-12-04T12:56:07.020Z,1731.00
2023-12-04T12:57:06.653Z,1623.00
2023-12-04T12:58:06.582Z,1509.00
2023-12-04T12:59:06.593Z,1432.00
2023-12-04T13:00:07.102Z,1360.00
2023-12-04T13:01:06.771Z,1289.00
2023-12-04T13:02:07.122Z,1251.00
2023-12-04T13:03:08.180Z,1217.00
2023-12-04T13:04:06.761Z,1201.00
2023-12-04T13:05:06.889Z,1201.00
2023-12-04T13:06:05.718Z,1195.00
2023-12-04T13:07:07.583Z,1187.00
2023-12-04T13:08:06.670Z,1182.00
2023-12-04T13:09:06.583Z,1176.00
2023-12-04T13:10:06.719Z,1180.00
2023-12-04T13:11:06.978Z,1193.00
2023-12-04T13:12:06.614Z,1237.00
2023-12-04T13:13:06.654Z,1258.00
2023-12-04T13:14:07.035Z,1256.00
2023-12-04T13:15:06.557Z,1227.00
2023-12-04T13:16:06.581Z,1179.00
2023-12-04T13:17:06.519Z,1086.00